Time;durP1;ratioP1;P1;durP2;ratioP2;P2;SDS_P1;SDS_P2;PMS_P1;PMS_P2;Temp;Humidity;BMP_temperature;BMP_pressure;BME280_temperature;BME280_humidity;BME280_pressure;Samples;Min_cycle;Max_cycle;Signal;HPM_P1;HPM_P2
2023/06/28 00:00:39;;;;;;;2.63;2.43;;;28.10;53.80;;;;;;4972206;28;20465;-85
2023/06/28 00:03:11;;;;;;;2.60;2.40;;;28.10;53.80;;;;;;4972553;28;20483;-85
2023/06/28 00:05:39;;;;;;;2.43;2.27;;;28.10;53.80;;;;;;4972009;28;20511;-85
2023/06/28 00:08:07;;;;;;;3.30;2.50;;;28.10;53.90;;;;;;4974376;28;20487;-86
2023/06/28 00:10:37;;;;;;;3.07;2.87;;;28.10;53.90;;;;;;4977308;28;20623;-86
2023/06/28 00:13:05;;;;;;;2.60;2.50;;;28.10;53.90;;;;;;4972744;28;20519;-85
2023/06/28 00:15:33;;;;;;;2.90;2.70;;;28.10;53.90;;;;;;4973478;28;20457;-86
2023/06/28 00:18:02;;;;;;;2.23;2.13;;;28.10;53.80;;;;;;4970512;28;20559;-85
2023/06/28 00:20:31;;;;;;;2.73;2.53;;;28.10;53.90;;;;;;4973664;28;20921;-86
2023/06/28 00:23:00;;;;;;;2.67;2.47;;;28.10;53.80;;;;;;4957365;28;20464;-86
2023/06/28 00:25:28;;;;;;;2.73;2.53;;;28.10;53.90;;;;;;4972445;28;20463;-86
2023/06/28 00:27:58;;;;;;;2.77;2.50;;;28.10;53.90;;;;;;4969409;28;20460;-86
2023/06/28 00:30:27;;;;;;;2.83;2.63;;;28.00;53.90;;;;;;4971608;28;20542;-86
2023/06/28 00:32:55;;;;;;;2.60;2.40;;;28.00;53.90;;;;;;4969309;28;20466;-87
2023/06/28 00:35:24;;;;;;;4.43;2.60;;;28.00;54.00;;;;;;4951988;28;20972;-86
2023/06/28 00:37:52;;;;;;;3.53;2.67;;;28.00;53.90;;;;;;4969062;28;20474;-86
2023/06/28 00:40:20;;;;;;;2.50;2.30;;;28.00;54.00;;;;;;4972612;28;20466;-86
2023/06/28 00:42:49;;;;;;;2.70;2.50;;;28.00;54.00;;;;;;4942150;28;20464;-86
2023/06/28 00:45:19;;;;;;;2.87;2.67;;;28.00;53.90;;;;;;4972868;28;20494;-86
2023/06/28 00:47:50;;;;;;;3.33;2.23;;;28.00;54.00;;;;;;4968459;28;20502;-86
2023/06/28 00:50:19;;;;;;;2.23;2.13;;;28.00;54.00;;;;;;4969744;28;20852;-86
2023/06/28 00:52:47;;;;;;;2.70;2.50;;;28.00;53.90;;;;;;4970456;28;20463;-86
2023/06/28 00:55:15;;;;;;;2.90;2.50;;;28.00;53.90;;;;;;4969343;28;20881;-86
2023/06/28 00:57:44;;;;;;;2.43;2.33;;;28.00;53.90;;;;;;4962367;28;20467;-86
2023/06/28 01:00:14;;;;;;;2.90;2.70;;;28.00;53.90;;;;;;4969984;28;20460;-85
2023/06/28 01:02:44;;;;;;;2.60;2.40;;;28.00;53.90;;;;;;4973092;28;20884;-86
2023/06/28 01:05:15;;;;;;;3.07;2.97;;;28.00;54.00;;;;;;4972456;28;20432;-86
2023/06/28 01:07:47;;;;;;;2.23;2.03;;;28.00;54.00;;;;;;4972359;28;20479;-86
2023/06/28 01:10:18;;;;;;;2.73;2.53;;;28.00;54.00;;;;;;4963729;28;20883;-86
2023/06/28 01:12:48;;;;;;;4.00;2.83;;;28.00;54.00;;;;;;4971734;28;20812;-85
2023/06/28 01:15:17;;;;;;;2.93;2.47;;;28.00;53.90;;;;;;4950862;28;20473;-86
2023/06/28 01:17:47;;;;;;;2.80;2.60;;;28.00;53.90;;;;;;4970482;28;20458;-86
2023/06/28 01:20:15;;;;;;;2.87;2.67;;;27.90;54.00;;;;;;4972250;28;20541;-86
2023/06/28 01:22:51;;;;;;;2.70;2.50;;;27.90;54.00;;;;;;4969311;28;20908;-86
2023/06/28 01:25:19;;;;;;;2.67;2.47;;;27.90;54.00;;;;;;4971433;28;20518;-86
2023/06/28 01:27:49;;;;;;;2.53;2.33;;;27.90;54.00;;;;;;4969716;28;20467;-86
2023/06/28 01:30:23;;;;;;;2.93;2.63;;;27.90;53.90;;;;;;4971795;28;20479;-85
2023/06/28 01:32:51;;;;;;;2.30;2.17;;;27.90;54.00;;;;;;4970444;28;20440;-85
2023/06/28 01:35:20;;;;;;;5.00;2.23;;;27.90;54.00;;;;;;4977028;28;20463;-86
2023/06/28 01:37:52;;;;;;;2.40;2.30;;;27.90;54.00;;;;;;4979134;28;20474;-86
2023/06/28 01:40:21;;;;;;;2.63;2.43;;;27.90;53.90;;;;;;4971802;28;20514;-86
2023/06/28 01:42:49;;;;;;;2.67;2.40;;;27.90;53.90;;;;;;4969669;28;20463;-86
2023/06/28 01:45:18;;;;;;;2.63;2.43;;;27.90;54.00;;;;;;4970019;28;20460;-86
2023/06/28 01:47:46;;;;;;;2.57;2.37;;;27.90;54.10;;;;;;4968995;28;20693;-86
2023/06/28 01:50:16;;;;;;;3.47;2.70;;;27.90;54.00;;;;;;4954658;28;20467;-86
2023/06/28 01:52:44;;;;;;;2.60;2.40;;;27.90;54.00;;;;;;4952289;28;20470;-86
2023/06/28 01:55:14;;;;;;;2.60;2.40;;;27.80;53.90;;;;;;4951478;29;20464;-85
2023/06/28 01:57:44;;;;;;;3.73;2.67;;;27.80;53.90;;;;;;4965626;28;20466;-86
2023/06/28 02:00:15;;;;;;;2.90;2.70;;;27.80;53.90;;;;;;4954717;28;20485;-86
2023/06/28 02:02:52;;;;;;;2.97;2.60;;;27.80;53.90;;;;;;4952054;28;20479;-86
2023/06/28 02:05:22;;;;;;;2.60;2.30;;;27.80;53.80;;;;;;4972168;28;20944;-85
2023/06/28 02:07:50;;;;;;;2.50;2.30;;;27.80;53.80;;;;;;4971533;28;20487;-86
2023/06/28 02:10:23;;;;;;;2.33;1.97;;;27.80;53.80;;;;;;4954331;28;20483;-86
2023/06/28 02:12:52;;;;;;;3.47;2.87;;;27.80;53.80;;;;;;4954865;28;20468;-86
2023/06/28 02:15:21;;;;;;;2.27;2.17;;;27.80;53.80;;;;;;4958949;28;20469;-86
2023/06/28 02:17:49;;;;;;;1.93;1.83;;;27.80;53.90;;;;;;4954649;28;20469;-86
2023/06/28 02:20:18;;;;;;;3.47;2.00;;;27.80;53.80;;;;;;4968329;28;20958;-86
2023/06/28 02:22:47;;;;;;;2.87;2.67;;;27.80;54.00;;;;;;4955237;28;20980;-86
2023/06/28 02:25:15;;;;;;;2.03;1.80;;;27.70;54.00;;;;;;4957230;28;20518;-86
2023/06/28 02:27:44;;;;;;;2.20;2.00;;;27.70;53.90;;;;;;4975103;28;20447;-86
2023/06/28 02:30:14;;;;;;;3.03;2.37;;;27.70;54.00;;;;;;4973753;28;20475;-86
2023/06/28 02:32:43;;;;;;;1.80;1.70;;;27.70;54.00;;;;;;4957942;28;20471;-86
2023/06/28 02:35:14;;;;;;;2.37;2.20;;;27.70;53.90;;;;;;4967920;28;20820;-86
2023/06/28 02:37:42;;;;;;;2.50;2.30;;;27.70;54.00;;;;;;4954486;29;20815;-86
2023/06/28 02:40:13;;;;;;;2.00;1.83;;;27.70;54.00;;;;;;4969009;28;20463;-86
2023/06/28 02:42:41;;;;;;;3.13;2.50;;;27.70;54.10;;;;;;4972500;28;20549;-86
2023/06/28 02:45:11;;;;;;;2.50;2.30;;;27.70;54.00;;;;;;4974614;28;20509;-86
2023/06/28 02:47:40;;;;;;;2.97;2.20;;;27.70;54.10;;;;;;4957873;28;20553;-86
2023/06/28 02:50:09;;;;;;;2.60;2.37;;;27.70;54.00;;;;;;4962026;28;20550;-86
2023/06/28 02:52:50;;;;;;;2.47;2.10;;;27.70;54.10;;;;;;4953152;28;20478;-86
2023/06/28 02:55:19;;;;;;;2.00;1.90;;;27.70;54.10;;;;;;4955730;28;20469;-86
2023/06/28 02:57:47;;;;;;;2.33;2.20;;;27.70;54.10;;;;;;4973026;28;20463;-86
2023/06/28 03:00:18;;;;;;;2.00;1.90;;;27.70;54.10;;;;;;4963664;28;20474;-86
2023/06/28 03:02:46;;;;;;;2.63;2.30;;;27.70;54.10;;;;;;4971707;28;20463;-86
2023/06/28 03:05:14;;;;;;;2.47;2.27;;;27.70;54.20;;;;;;4956216;28;20523;-86
2023/06/28 03:07:42;;;;;;;2.33;1.93;;;27.70;54.30;;;;;;4957295;28;20566;-86
2023/06/28 03:10:11;;;;;;;3.13;2.27;;;27.70;54.30;;;;;;4951102;28;20883;-86
2023/06/28 03:12:39;;;;;;;2.93;2.37;;;27.60;54.30;;;;;;4952249;28;20486;-86
2023/06/28 03:15:09;;;;;;;2.30;2.10;;;27.70;54.30;;;;;;4955880;28;20466;-86
2023/06/28 03:17:38;;;;;;;2.67;2.47;;;27.70;54.30;;;;;;4973359;28;20462;-86
2023/06/28 03:20:10;;;;;;;2.30;2.20;;;27.60;54.30;;;;;;4954676;28;20470;-86
2023/06/28 03:22:38;;;;;;;2.13;2.03;;;27.60;54.30;;;;;;4973104;28;20522;-86
2023/06/28 03:25:07;;;;;;;3.93;2.30;;;27.60;54.40;;;;;;4958782;28;20458;-86
2023/06/28 03:27:35;;;;;;;2.20;2.10;;;27.60;54.40;;;;;;4968379;28;20525;-86
2023/06/28 03:30:06;;;;;;;2.93;2.60;;;27.60;54.40;;;;;;4961745;28;20529;-86
2023/06/28 03:32:34;;;;;;;2.27;2.17;;;27.60;54.50;;;;;;4955217;28;20482;-86
2023/06/28 03:35:05;;;;;;;1.90;1.80;;;27.60;54.40;;;;;;4953790;28;20795;-86
2023/06/28 03:37:34;;;;;;;3.23;2.60;;;27.60;54.40;;;;;;4968504;28;20470;-86
2023/06/28 03:40:03;;;;;;;2.50;2.30;;;27.60;54.40;;;;;;4956812;28;20451;-86
2023/06/28 03:42:31;;;;;;;2.77;2.57;;;27.60;54.50;;;;;;4954526;28;20840;-86
2023/06/28 03:44:59;;;;;;;2.30;2.10;;;27.60;54.50;;;;;;4973547;28;20497;-86
2023/06/28 03:47:28;;;;;;;2.20;2.00;;;27.60;54.50;;;;;;4959494;28;20549;-86
2023/06/28 03:49:56;;;;;;;2.57;2.37;;;27.60;54.50;;;;;;4971134;28;20557;-86
2023/06/28 03:52:27;;;;;;;2.50;2.33;;;27.60;54.50;;;;;;4965268;28;20490;-86
2023/06/28 03:54:55;;;;;;;2.33;2.10;;;27.60;54.50;;;;;;4954608;28;20496;-86
2023/06/28 03:57:24;;;;;;;3.00;2.70;;;27.60;54.60;;;;;;4973033;28;20462;-86
2023/06/28 03:59:52;;;;;;;1.93;1.83;;;27.60;54.60;;;;;;4969387;28;20498;-86
2023/06/28 04:02:20;;;;;;;2.33;2.23;;;27.60;54.70;;;;;;4969784;28;20481;-86
2023/06/28 04:04:48;;;;;;;2.50;2.30;;;27.60;54.70;;;;;;4973744;28;20462;-86
2023/06/28 04:07:17;;;;;;;2.70;2.50;;;27.60;54.70;;;;;;4973450;28;20471;-86
2023/06/28 04:09:47;;;;;;;2.30;2.10;;;27.60;54.70;;;;;;4971413;28;20466;-86
2023/06/28 04:12:15;;;;;;;2.10;2.00;;;27.60;54.70;;;;;;4973281;28;20598;-86
2023/06/28 04:14:43;;;;;;;2.60;2.23;;;27.60;54.80;;;;;;4971625;28;20462;-86
2023/06/28 04:17:11;;;;;;;3.00;1.87;;;27.60;54.80;;;;;;4968412;28;20525;-86
2023/06/28 04:19:39;;;;;;;3.20;2.57;;;27.60;54.90;;;;;;4973356;28;20484;-86
2023/06/28 04:22:08;;;;;;;3.93;2.50;;;27.60;54.80;;;;;;4970738;28;20465;-86
2023/06/28 04:24:36;;;;;;;2.50;2.30;;;27.60;54.90;;;;;;4971711;28;20451;-85
2023/06/28 04:27:06;;;;;;;2.53;2.30;;;27.60;54.90;;;;;;4956672;28;20537;-86
2023/06/28 04:29:34;;;;;;;2.20;2.10;;;27.60;54.90;;;;;;4971876;28;20506;-86
2023/06/28 04:32:03;;;;;;;2.90;2.17;;;27.60;54.90;;;;;;4966791;28;20488;-86
2023/06/28 04:34:31;;;;;;;2.73;2.53;;;27.60;54.90;;;;;;4970444;28;20470;-86
2023/06/28 04:37:00;;;;;;;2.20;2.10;;;27.60;55.00;;;;;;4968440;28;20469;-86
2023/06/28 04:39:43;;;;;;;2.60;2.40;;;27.60;55.00;;;;;;4970625;28;20485;-86
2023/06/28 04:42:14;;;;;;;2.17;2.00;;;27.60;55.00;;;;;;4968408;28;20477;-86
2023/06/28 04:44:44;;;;;;;2.37;2.17;;;27.60;55.00;;;;;;4972283;28;20454;-86
2023/06/28 04:47:15;;;;;;;2.07;1.97;;;27.50;55.00;;;;;;4968940;28;20467;-86
2023/06/28 04:49:46;;;;;;;2.20;2.00;;;27.60;55.10;;;;;;4975390;28;20462;-84
2023/06/28 04:52:15;;;;;;;2.00;1.90;;;27.50;55.10;;;;;;4968740;28;20546;-85
2023/06/28 04:54:43;;;;;;;2.87;2.50;;;27.50;55.10;;;;;;4969256;28;20527;-84
2023/06/28 04:57:13;;;;;;;2.33;2.10;;;27.50;55.10;;;;;;4969774;28;20574;-85
2023/06/28 04:59:41;;;;;;;2.13;2.00;;;27.50;55.20;;;;;;4969441;28;20498;-84
2023/06/28 05:02:09;;;;;;;2.90;2.70;;;27.50;55.20;;;;;;4965646;28;20463;-84
2023/06/28 05:04:39;;;;;;;1.90;1.80;;;27.50;55.20;;;;;;4956376;28;20558;-86
2023/06/28 05:07:09;;;;;;;2.77;2.53;;;27.50;55.30;;;;;;4968160;28;20492;-85
2023/06/28 05:09:38;;;;;;;2.23;1.60;;;27.50;55.30;;;;;;4966586;28;20869;-84
2023/06/28 05:12:07;;;;;;;2.20;1.90;;;27.50;55.30;;;;;;4968467;28;20474;-83
2023/06/28 05:14:36;;;;;;;1.93;1.83;;;27.50;55.40;;;;;;4966252;28;20568;-86
2023/06/28 05:17:05;;;;;;;3.17;2.40;;;27.50;55.40;;;;;;4969376;28;20459;-86
2023/06/28 05:19:35;;;;;;;3.10;2.20;;;27.50;55.50;;;;;;4964241;28;21039;-86
2023/06/28 05:22:04;;;;;;;2.57;2.37;;;27.50;55.80;;;;;;4970760;28;20529;-86
2023/06/28 05:24:32;;;;;;;2.43;2.23;;;27.50;55.80;;;;;;4969246;28;20465;-86
2023/06/28 05:27:00;;;;;;;2.73;2.53;;;27.50;55.90;;;;;;4966938;28;20477;-86
2023/06/28 05:29:28;;;;;;;2.90;2.70;;;27.50;55.90;;;;;;4964733;28;20466;-86
2023/06/28 05:32:00;;;;;;;3.43;2.40;;;27.50;55.90;;;;;;4968503;28;20758;-86
2023/06/28 05:34:28;;;;;;;3.80;1.90;;;27.50;55.90;;;;;;4971101;28;20491;-86
2023/06/28 05:36:57;;;;;;;2.80;2.60;;;27.50;55.80;;;;;;4968455;28;20524;-87
2023/06/28 05:39:25;;;;;;;2.30;2.20;;;27.50;55.80;;;;;;4969932;28;20547;-87
2023/06/28 05:41:53;;;;;;;3.27;2.97;;;27.50;55.90;;;;;;4968326;28;20528;-87
2023/06/28 05:44:21;;;;;;;2.70;2.40;;;27.40;55.90;;;;;;4966801;28;20559;-87
2023/06/28 05:46:50;;;;;;;3.23;2.30;;;27.50;55.90;;;;;;4962747;28;20487;-87
2023/06/28 05:49:19;;;;;;;2.40;2.30;;;27.50;55.90;;;;;;4970996;28;20549;-87
2023/06/28 05:51:47;;;;;;;2.73;2.53;;;27.50;55.90;;;;;;4973167;28;20474;-87
2023/06/28 05:54:16;;;;;;;2.03;1.93;;;27.50;55.90;;;;;;4970046;28;20478;-88
2023/06/28 05:56:44;;;;;;;2.60;2.40;;;27.50;55.90;;;;;;4963194;28;20969;-87
2023/06/28 05:59:12;;;;;;;2.57;2.37;;;27.50;55.90;;;;;;4972141;28;20455;-87
2023/06/28 06:01:40;;;;;;;2.20;2.10;;;27.50;55.80;;;;;;4969845;28;20517;-87
2023/06/28 06:04:09;;;;;;;3.03;2.30;;;27.50;55.80;;;;;;4972113;28;20461;-87
2023/06/28 06:06:38;;;;;;;2.90;2.23;;;27.50;55.80;;;;;;4838333;28;3893823;-87
2023/06/28 06:09:06;;;;;;;2.40;2.20;;;27.50;55.80;;;;;;4971522;28;20491;-87
2023/06/28 06:11:36;;;;;;;2.53;2.43;;;27.50;55.80;;;;;;4954262;28;20760;-87
2023/06/28 06:14:04;;;;;;;2.20;2.10;;;27.50;55.70;;;;;;4972774;28;20473;-87
2023/06/28 06:16:32;;;;;;;3.23;2.93;;;27.50;55.70;;;;;;4974114;28;20521;-87
2023/06/28 06:19:00;;;;;;;2.53;2.00;;;27.50;55.80;;;;;;4971106;28;20954;-87
2023/06/28 06:21:28;;;;;;;2.00;1.90;;;27.50;55.80;;;;;;4974368;28;20474;-87
2023/06/28 06:23:59;;;;;;;2.10;2.00;;;27.50;55.70;;;;;;4974393;28;20485;-88
2023/06/28 06:26:28;;;;;;;5.43;2.53;;;27.50;55.80;;;;;;4971847;28;20477;-87
2023/06/28 06:28:56;;;;;;;2.33;2.13;;;27.50;55.70;;;;;;4972878;28;20459;-88
2023/06/28 06:31:24;;;;;;;2.50;2.30;;;27.50;55.80;;;;;;4971826;28;20455;-87
2023/06/28 06:33:53;;;;;;;2.17;1.97;;;27.50;55.80;;;;;;4972388;28;20485;-87
2023/06/28 06:36:21;;;;;;;2.83;2.50;;;27.50;55.80;;;;;;4974609;28;20466;-87
2023/06/28 06:38:49;;;;;;;2.10;2.00;;;27.50;55.80;;;;;;4973657;28;20506;-87
2023/06/28 06:41:19;;;;;;;2.40;2.20;;;27.50;55.80;;;;;;4972739;28;20474;-87
2023/06/28 06:43:48;;;;;;;2.73;2.30;;;27.60;55.80;;;;;;4964152;28;21201;-87
2023/06/28 06:46:18;;;;;;;3.00;2.33;;;27.60;55.70;;;;;;4972973;28;20466;-87
2023/06/28 06:48:47;;;;;;;2.50;2.40;;;27.60;55.80;;;;;;4974162;28;20999;-87
2023/06/28 06:51:15;;;;;;;2.37;2.20;;;27.60;55.80;;;;;;4969497;28;21033;-87
2023/06/28 06:53:43;;;;;;;2.30;2.10;;;27.60;55.80;;;;;;4972345;28;20481;-87
2023/06/28 06:56:12;;;;;;;3.23;2.77;;;27.60;55.80;;;;;;4972452;28;20520;-87
2023/06/28 06:58:41;;;;;;;2.60;2.27;;;27.60;55.70;;;;;;4969616;28;20470;-87
2023/06/28 07:01:09;;;;;;;2.57;2.37;;;27.60;55.80;;;;;;4970246;28;20470;-85
2023/06/28 07:03:38;;;;;;;2.27;1.90;;;27.60;55.70;;;;;;4966609;28;20462;-87
2023/06/28 07:06:06;;;;;;;2.50;2.40;;;27.60;56.00;;;;;;4956894;28;20466;-89
2023/06/28 07:08:35;;;;;;;2.40;2.30;;;27.60;56.00;;;;;;4971512;28;20522;-86
2023/06/28 07:11:04;;;;;;;3.30;2.60;;;27.70;56.20;;;;;;4969919;28;20463;-86
2023/06/28 07:13:32;;;;;;;3.17;2.50;;;27.70;56.20;;;;;;4970166;28;20475;-85
2023/06/28 07:16:01;;;;;;;2.20;2.03;;;27.70;56.30;;;;;;4965721;28;20494;-86
2023/06/28 07:18:30;;;;;;;2.53;2.33;;;27.70;56.30;;;;;;4975768;28;20452;-86
2023/06/28 07:20:58;;;;;;;2.60;2.40;;;27.70;56.20;;;;;;4973776;28;20465;-88
2023/06/28 07:23:26;;;;;;;3.30;3.10;;;27.70;56.30;;;;;;4973554;28;20510;-87
2023/06/28 07:25:55;;;;;;;3.27;2.67;;;27.70;56.20;;;;;;4977506;28;20467;-87
2023/06/28 07:28:23;;;;;;;2.40;2.20;;;27.80;56.20;;;;;;4971340;28;20515;-86
2023/06/28 07:30:53;;;;;;;3.53;2.40;;;27.80;56.20;;;;;;4969904;28;20546;-88
2023/06/28 07:33:23;;;;;;;2.00;1.90;;;27.80;56.20;;;;;;4967981;28;20486;-87
2023/06/28 07:35:52;;;;;;;3.10;2.30;;;27.80;56.20;;;;;;4969412;28;20509;-86
2023/06/28 07:38:22;;;;;;;4.83;2.80;;;27.80;56.20;;;;;;4965339;28;20466;-84
2023/06/28 07:40:51;;;;;;;3.47;3.17;;;27.80;56.10;;;;;;4972145;28;20474;-85
2023/06/28 07:43:20;;;;;;;3.10;2.90;;;27.80;56.20;;;;;;4975918;28;20467;-88
2023/06/28 07:45:48;;;;;;;2.43;2.23;;;27.90;56.10;;;;;;4968634;28;21070;-84
2023/06/28 07:48:16;;;;;;;2.63;2.47;;;27.90;56.10;;;;;;4979639;28;20526;-86
2023/06/28 07:50:47;;;;;;;2.03;1.90;;;27.90;56.10;;;;;;4978633;28;20533;-86
2023/06/28 07:53:15;;;;;;;2.57;2.37;;;27.90;56.00;;;;;;4975288;28;20484;-87
2023/06/28 07:55:43;;;;;;;3.43;2.53;;;27.90;55.90;;;;;;4963053;28;20470;-91
2023/06/28 07:58:12;;;;;;;3.70;2.10;;;28.00;56.00;;;;;;4959378;28;20522;-90
2023/06/28 08:00:41;;;;;;;3.37;3.07;;;28.00;55.90;;;;;;4974165;28;20995;-86
2023/06/28 08:03:10;;;;;;;3.17;2.60;;;28.00;55.90;;;;;;4976367;28;20499;-90
2023/06/28 08:05:38;;;;;;;2.10;1.87;;;28.00;55.90;;;;;;4972497;28;20474;-86
2023/06/28 08:08:11;;;;;;;2.50;2.30;;;28.00;55.90;;;;;;4971177;28;20490;-82
2023/06/28 08:10:39;;;;;;;2.37;2.17;;;28.00;55.90;;;;;;4974507;28;21028;-85
2023/06/28 08:13:07;;;;;;;1.90;1.80;;;28.00;55.90;;;;;;4974279;28;20529;-84
2023/06/28 08:15:36;;;;;;;2.33;2.23;;;28.00;55.90;;;;;;4976712;28;20476;-86
2023/06/28 08:18:07;;;;;;;2.47;2.27;;;28.00;55.80;;;;;;4971404;28;20535;-87
2023/06/28 08:20:36;;;;;;;2.07;1.93;;;28.10;55.80;;;;;;4971536;28;20876;-88
2023/06/28 08:23:04;;;;;;;2.07;1.87;;;28.10;55.80;;;;;;4971578;28;20508;-87
2023/06/28 08:25:34;;;;;;;2.57;2.37;;;28.10;55.70;;;;;;4970744;28;20464;-89
2023/06/28 08:28:03;;;;;;;2.20;2.00;;;28.10;55.80;;;;;;4969889;28;20464;-88
2023/06/28 08:30:31;;;;;;;2.50;2.20;;;28.20;55.70;;;;;;4970086;28;20456;-87
2023/06/28 08:32:59;;;;;;;2.37;2.13;;;28.20;55.70;;;;;;4971734;28;20468;-88
2023/06/28 08:35:27;;;;;;;2.47;2.27;;;28.20;55.70;;;;;;4971495;28;20479;-87
2023/06/28 08:37:56;;;;;;;2.50;2.30;;;28.20;55.60;;;;;;4968924;28;20489;-87
2023/06/28 08:40:27;;;;;;;2.00;1.90;;;28.20;55.60;;;;;;4970784;28;20518;-85
2023/06/28 08:43:01;;;;;;;2.83;2.40;;;28.20;55.60;;;;;;4967681;28;20887;-84
2023/06/28 08:45:32;;;;;;;3.07;2.77;;;28.20;55.60;;;;;;4969203;28;20461;-84
2023/06/28 08:48:01;;;;;;;1.97;1.87;;;28.20;55.50;;;;;;4970355;28;20472;-83
2023/06/28 08:50:50;;;;;;;3.10;2.50;;;28.30;55.60;;;;;;4969964;28;20474;-82
2023/06/28 08:53:21;;;;;;;2.00;1.80;;;28.30;55.60;;;;;;4968901;28;20785;-84
2023/06/28 08:55:50;;;;;;;2.07;1.90;;;28.30;55.50;;;;;;4966970;28;20478;-84
2023/06/28 08:58:21;;;;;;;2.30;2.10;;;28.30;55.60;;;;;;4970050;28;20461;-83
2023/06/28 09:00:49;;;;;;;2.40;2.20;;;28.30;55.60;;;;;;4971689;28;20546;-83
2023/06/28 09:03:18;;;;;;;2.60;2.23;;;28.30;55.50;;;;;;4972232;28;20518;-83
2023/06/28 09:05:47;;;;;;;2.30;2.20;;;28.30;55.60;;;;;;4969087;28;20474;-82
2023/06/28 09:08:18;;;;;;;2.70;2.43;;;28.40;55.50;;;;;;4970640;28;20493;-83
2023/06/28 09:10:47;;;;;;;2.50;2.30;;;28.40;55.60;;;;;;4970944;28;20472;-85
2023/06/28 09:13:19;;;;;;;2.93;2.00;;;28.40;55.50;;;;;;4958639;28;20526;-85
2023/06/28 09:15:49;;;;;;;2.40;2.23;;;28.40;55.50;;;;;;4974449;28;20487;-84
2023/06/28 09:18:19;;;;;;;2.20;2.10;;;28.40;55.50;;;;;;4969243;28;20539;-83
2023/06/28 09:20:51;;;;;;;2.53;2.30;;;28.50;55.40;;;;;;4973605;28;20473;-84
2023/06/28 09:23:24;;;;;;;2.10;2.00;;;28.50;55.50;;;;;;4972493;28;20554;-85
2023/06/28 09:25:52;;;;;;;2.17;1.97;;;28.50;55.50;;;;;;4968665;28;20498;-82
2023/06/28 09:28:22;;;;;;;2.63;2.27;;;28.50;55.40;;;;;;4955380;28;20474;-83
2023/06/28 09:30:55;;;;;;;2.70;2.50;;;28.50;55.30;;;;;;4969764;28;20826;-84
2023/06/28 09:33:24;;;;;;;2.53;2.33;;;28.50;55.20;;;;;;4959398;28;20479;-85
2023/06/28 09:35:55;;;;;;;2.57;2.37;;;28.50;55.20;;;;;;4953012;28;20582;-83
2023/06/28 09:38:24;;;;;;;2.40;2.20;;;28.50;55.20;;;;;;4970307;28;20465;-82
2023/06/28 09:40:56;;;;;;;2.20;2.10;;;28.50;55.20;;;;;;4969949;28;20471;-87
2023/06/28 09:43:24;;;;;;;2.60;2.40;;;28.50;55.10;;;;;;4971713;28;20991;-86
2023/06/28 09:45:55;;;;;;;2.57;2.37;;;28.50;54.90;;;;;;4969299;28;20457;-86
2023/06/28 09:48:24;;;;;;;2.60;2.40;;;28.50;54.90;;;;;;4969080;28;21021;-87
2023/06/28 09:50:52;;;;;;;2.83;2.30;;;28.60;54.90;;;;;;4969993;28;20976;-86
2023/06/28 09:53:22;;;;;;;3.37;3.10;;;28.60;54.90;;;;;;4970335;28;20465;-86
2023/06/28 09:55:52;;;;;;;2.10;2.00;;;28.60;55.00;;;;;;4969818;28;20481;-86
2023/06/28 09:58:21;;;;;;;2.33;2.13;;;28.60;54.80;;;;;;4960822;28;21026;-87
2023/06/28 10:00:50;;;;;;;2.30;2.20;;;28.60;54.80;;;;;;4963612;28;20501;-86
2023/06/28 10:03:27;;;;;;;2.80;2.53;;;28.60;55.00;;;;;;4967797;28;20890;-87
2023/06/28 10:05:57;;;;;;;2.33;2.10;;;28.60;55.00;;;;;;4969385;28;20459;-87
2023/06/28 10:08:26;;;;;;;2.90;2.30;;;28.60;54.80;;;;;;4964747;28;21063;-87
2023/06/28 10:10:55;;;;;;;2.47;2.13;;;28.60;54.70;;;;;;4968154;28;20461;-86
2023/06/28 10:13:26;;;;;;;4.70;2.53;;;28.60;54.90;;;;;;4948903;28;20449;-86
2023/06/28 10:15:59;;;;;;;2.53;2.30;;;28.60;54.80;;;;;;4965833;28;20927;-85
2023/06/28 10:18:29;;;;;;;2.50;2.30;;;28.60;55.00;;;;;;4965879;28;20452;-86
2023/06/28 10:21:00;;;;;;;3.20;2.90;;;28.60;55.10;;;;;;4966811;28;20465;-85
2023/06/28 10:23:29;;;;;;;3.23;2.80;;;28.60;55.30;;;;;;4966727;28;20468;-84
2023/06/28 10:25:59;;;;;;;2.60;2.40;;;28.60;55.40;;;;;;4966198;28;20537;-86
2023/06/28 10:28:28;;;;;;;3.03;2.73;;;28.60;55.30;;;;;;4966935;28;20506;-85
2023/06/28 10:30:57;;;;;;;3.10;2.90;;;28.60;55.20;;;;;;4965813;28;20511;-86
2023/06/28 10:33:32;;;;;;;2.60;2.40;;;28.60;55.30;;;;;;4962492;28;20469;-86
2023/06/28 10:36:01;;;;;;;4.60;2.73;;;28.60;55.40;;;;;;4967679;28;20996;-85
2023/06/28 10:38:33;;;;;;;4.33;3.00;;;28.60;55.20;;;;;;4972326;28;20596;-86
2023/06/28 10:41:01;;;;;;;3.83;3.00;;;28.60;55.20;;;;;;4970369;28;20468;-86
2023/06/28 10:43:31;;;;;;;4.47;3.67;;;28.60;55.20;;;;;;4971426;28;20969;-86
2023/06/28 10:45:59;;;;;;;3.10;2.80;;;28.60;55.10;;;;;;4970617;28;20475;-85
2023/06/28 10:48:28;;;;;;;2.70;2.50;;;28.60;55.10;;;;;;4968885;28;20497;-86
2023/06/28 10:51:01;;;;;;;4.43;3.47;;;28.60;55.20;;;;;;4968931;28;20460;-82
2023/06/28 10:53:30;;;;;;;6.03;3.03;;;28.60;55.40;;;;;;4977088;28;20465;-81
2023/06/28 10:56:10;;;;;;;4.90;2.90;;;28.70;55.70;;;;;;4950493;28;20481;-85
2023/06/28 10:58:40;;;;;;;4.13;3.60;;;28.70;55.90;;;;;;4975796;28;20473;-84
2023/06/28 11:01:09;;;;;;;3.20;2.50;;;28.70;55.90;;;;;;4972924;28;20467;-84
2023/06/28 11:03:39;;;;;;;4.80;3.30;;;28.70;56.00;;;;;;4969069;28;20492;-82
2023/06/28 11:06:09;;;;;;;5.00;3.30;;;28.70;56.00;;;;;;4968181;28;20497;-84
2023/06/28 11:08:40;;;;;;;4.27;3.13;;;28.70;56.20;;;;;;4970572;28;21058;-82
2023/06/28 11:11:11;;;;;;;4.73;3.40;;;28.70;56.00;;;;;;4972223;28;20567;-84
2023/06/28 11:13:48;;;;;;;5.67;3.47;;;28.70;55.70;;;;;;4966930;28;20639;-86
2023/06/28 11:16:21;;;;;;;3.50;2.63;;;28.80;55.90;;;;;;4969796;28;20507;-85
2023/06/28 11:18:51;;;;;;;2.93;2.47;;;28.80;55.80;;;;;;4970117;28;20489;-86
2023/06/28 11:21:25;;;;;;;4.57;2.70;;;28.80;55.70;;;;;;4970754;28;20462;-84
2023/06/28 11:23:55;;;;;;;5.80;4.00;;;28.80;55.60;;;;;;4969096;28;20468;-82
2023/06/28 11:26:34;;;;;;;2.63;2.43;;;28.80;55.50;;;;;;4971237;28;20469;-83
2023/06/28 11:29:02;;;;;;;2.47;2.27;;;28.80;55.30;;;;;;4973125;28;20472;-82
2023/06/28 11:31:40;;;;;;;2.77;2.50;;;28.80;55.20;;;;;;4972036;28;20867;-83
2023/06/28 11:34:09;;;;;;;4.13;3.20;;;28.80;55.00;;;;;;4969680;28;20476;-83
2023/06/28 11:36:40;;;;;;;3.10;2.80;;;28.80;55.20;;;;;;4971937;28;20488;-83
2023/06/28 11:39:09;;;;;;;2.60;2.40;;;28.80;55.20;;;;;;4970440;28;20519;-84
2023/06/28 11:41:37;;;;;;;3.60;2.37;;;28.80;55.00;;;;;;4971536;28;20454;-87
2023/06/28 11:44:12;;;;;;;4.53;2.13;;;28.80;55.10;;;;;;4969696;28;20478;-83
2023/06/28 11:46:41;;;;;;;2.83;2.40;;;28.70;54.90;;;;;;4970782;28;20469;-88
2023/06/28 11:49:10;;;;;;;3.43;2.27;;;28.80;55.00;;;;;;4970587;28;20511;-88
2023/06/28 11:51:41;;;;;;;2.87;2.63;;;28.80;55.20;;;;;;4970269;28;20454;-86
2023/06/28 11:54:10;;;;;;;2.87;2.60;;;28.80;55.40;;;;;;4971730;28;20462;-85
2023/06/28 11:56:39;;;;;;;2.00;1.90;;;28.80;55.20;;;;;;4969509;28;20507;-83
2023/06/28 11:59:15;;;;;;;2.20;2.00;;;28.80;55.40;;;;;;4965002;28;20508;-87
2023/06/28 12:01:43;;;;;;;2.73;2.50;;;28.80;55.20;;;;;;4970420;28;20464;-83
2023/06/28 12:04:16;;;;;;;2.80;2.20;;;28.80;55.20;;;;;;4970475;28;20501;-86
2023/06/28 12:06:53;;;;;;;4.73;2.87;;;28.80;55.00;;;;;;4971058;28;20575;-86
2023/06/28 12:09:23;;;;;;;2.53;2.30;;;28.90;55.00;;;;;;4967707;28;20461;-84
2023/06/28 12:11:53;;;;;;;2.70;2.50;;;29.00;54.90;;;;;;4968712;28;21123;-87
2023/06/28 12:14:22;;;;;;;2.00;1.90;;;29.10;54.60;;;;;;4962743;28;21153;-87
2023/06/28 12:16:54;;;;;;;2.40;2.20;;;29.20;54.20;;;;;;4972270;28;20482;-85
2023/06/28 12:19:27;;;;;;;4.47;2.30;;;29.30;54.20;;;;;;4968790;28;20961;-88
2023/06/28 12:22:01;;;;;;;2.43;2.20;;;29.40;53.90;;;;;;4971763;28;20514;-86
2023/06/28 12:24:29;;;;;;;4.83;2.97;;;29.60;53.60;;;;;;4967618;28;20463;-83
2023/06/28 12:26:59;;;;;;;2.10;2.00;;;29.60;53.40;;;;;;4971144;28;20866;-85
2023/06/28 12:29:29;;;;;;;1.97;1.87;;;29.50;53.40;;;;;;4959902;28;20994;-85
2023/06/28 12:32:04;;;;;;;4.70;2.17;;;29.50;53.80;;;;;;4954450;28;20457;-87
2023/06/28 12:34:34;;;;;;;2.20;2.00;;;29.50;53.90;;;;;;4968743;28;20470;-84
2023/06/28 12:37:05;;;;;;;2.40;2.20;;;29.70;53.60;;;;;;4967818;28;20477;-84
2023/06/28 12:39:36;;;;;;;2.37;2.27;;;29.80;53.40;;;;;;4976600;28;20789;-84
2023/06/28 12:42:06;;;;;;;1.90;1.80;;;29.80;53.30;;;;;;4976806;28;20469;-84
2023/06/28 12:44:50;;;;;;;2.20;1.93;;;29.90;53.10;;;;;;4975464;28;21163;-86
2023/06/28 12:47:19;;;;;;;2.47;2.07;;;29.80;52.80;;;;;;4970073;28;20473;-86
2023/06/28 12:49:48;;;;;;;2.20;2.10;;;29.80;52.50;;;;;;4972788;28;20475;-85
2023/06/28 12:52:17;;;;;;;2.20;2.07;;;29.70;52.80;;;;;;4973711;28;20967;-86
2023/06/28 12:54:46;;;;;;;1.93;1.80;;;29.70;52.80;;;;;;4970967;28;20532;-85
2023/06/28 12:57:14;;;;;;;2.30;2.10;;;29.70;52.70;;;;;;4970203;28;20568;-83
2023/06/28 12:59:42;;;;;;;1.87;1.77;;;29.60;52.60;;;;;;4955072;28;20536;-84